Time;durP1;ratioP1;P1;durP2;ratioP2;P2;SDS_P1;SDS_P2;PMS_P1;PMS_P2;Temp;Humidity;BMP_temperature;BMP_pressure;BME280_temperature;BME280_humidity;BME280_pressure;Samples;Min_cycle;Max_cycle;Signal;HPM_P1;HPM_P2
2021/07/19 00:00:42;;;;;;;7.22;2.10;;;42.20;27.30;;;;;;5061862;28;20120;-67
2021/07/19 00:03:09;;;;;;;18.70;2.88;;;42.00;33.50;;;;;;5064273;28;21544;-66
2021/07/19 00:05:35;;;;;;;10.52;2.33;;;42.00;26.80;;;;;;5064275;28;20081;-65
2021/07/19 00:08:02;;;;;;;13.20;2.35;;;42.00;27.20;;;;;;5063674;28;20095;-65
2021/07/19 00:10:29;;;;;;;9.90;2.22;;;41.80;27.10;;;;;;5062268;28;20082;-66
2021/07/19 00:12:55;;;;;;;15.55;3.03;;;41.70;27.30;;;;;;5064340;28;20451;-66
2021/07/19 00:15:26;;;;;;;14.38;2.50;;;41.80;27.50;;;;;;5065157;28;20082;-66
2021/07/19 00:17:54;;;;;;;9.80;1.92;;;41.60;27.70;;;;;;5060603;28;20196;-66
2021/07/19 00:20:21;;;;;;;13.05;2.50;;;41.30;27.70;;;;;;5064734;28;20065;-67
2021/07/19 00:22:48;;;;;;;10.35;2.08;;;41.50;27.90;;;;;;5047483;28;20426;-68
2021/07/19 00:25:17;;;;;;;10.77;2.63;;;41.20;36.10;;;;;;5063804;28;20028;-66
2021/07/19 00:27:45;;;;;;;10.00;2.20;;;41.30;27.80;;;;;;5045036;28;20081;-66
2021/07/19 00:30:14;;;;;;;15.27;3.10;;;41.30;27.60;;;;;;5062886;28;20576;-65
2021/07/19 00:32:42;;;;;;;14.70;2.75;;;41.30;27.70;;;;;;5061051;28;20170;-67
2021/07/19 00:35:09;;;;;;;7.47;1.95;;;41.30;27.80;;;;;;5059027;28;20080;-67
2021/07/19 00:37:36;;;;;;;13.73;2.38;;;41.40;27.80;;;;;;5049712;28;20104;-65
2021/07/19 00:40:15;;;;;;;11.57;2.05;;;41.30;28.00;;;;;;5059591;28;20072;-66
2021/07/19 00:42:44;;;;;;;15.57;2.80;;;41.10;28.10;;;;;;5067407;28;20096;-66
2021/07/19 00:45:16;;;;;;;10.60;3.08;;;40.90;28.30;;;;;;5063999;28;20087;-66
2021/07/19 00:47:49;;;;;;;9.68;2.22;;;40.80;28.00;;;;;;5065467;28;20096;-65
2021/07/19 00:50:17;;;;;;;12.48;2.15;;;40.80;28.40;;;;;;5059385;28;20128;-66
2021/07/19 00:52:44;;;;;;;11.23;2.40;;;40.70;28.80;;;;;;5062348;28;20530;-66
2021/07/19 00:55:13;;;;;;;8.70;1.80;;;40.70;29.30;;;;;;5059997;28;20074;-66
2021/07/19 00:57:42;;;;;;;10.20;2.08;;;40.60;28.90;;;;;;5044897;28;20541;-66
2021/07/19 01:00:11;;;;;;;19.60;2.67;;;40.50;29.60;;;;;;5060540;28;20079;-66
2021/07/19 01:02:41;;;;;;;10.75;2.30;;;40.60;30.00;;;;;;5062178;28;20100;-65
2021/07/19 01:05:09;;;;;;;13.77;2.65;;;40.50;30.80;;;;;;5065665;28;20085;-66
2021/07/19 01:07:38;;;;;;;18.80;2.45;;;40.40;30.70;;;;;;5061532;28;20074;-65
2021/07/19 01:10:16;;;;;;;15.20;2.47;;;40.30;31.20;;;;;;5063685;28;20080;-65
2021/07/19 01:12:49;;;;;;;5.90;2.03;;;40.20;31.50;;;;;;5062293;28;20101;-65
2021/07/19 01:15:17;;;;;;;8.10;2.03;;;40.20;30.60;;;;;;5062807;28;20446;-65
2021/07/19 01:17:44;;;;;;;12.55;2.72;;;40.20;30.60;;;;;;5062336;28;20492;-66
2021/07/19 01:20:11;;;;;;;7.47;2.17;;;40.20;30.80;;;;;;5060293;28;20073;-66
2021/07/19 01:23:08;;;;;;;12.40;2.25;;;40.10;30.50;;;;;;5042506;28;20073;-65
2021/07/19 01:26:22;;;;;;;8.60;1.98;;;40.00;30.10;;;;;;5060196;28;20076;-66
2021/07/19 01:28:52;;;;;;;17.80;2.65;;;40.00;30.50;;;;;;5065765;28;20088;-66
2021/07/19 01:31:27;;;;;;;16.35;2.38;;;39.90;30.80;;;;;;5059682;28;20160;-66
2021/07/19 01:34:02;;;;;;;9.75;2.15;;;39.80;30.10;;;;;;5059577;28;20180;-66
2021/07/19 01:36:33;;;;;;;12.40;2.30;;;39.80;30.30;;;;;;5066056;28;20065;-66
2021/07/19 01:38:59;;;;;;;16.67;2.50;;;39.60;30.60;;;;;;5062789;28;20130;-66
2021/07/19 01:41:28;;;;;;;11.73;2.38;;;39.60;30.80;;;;;;5065476;28;21496;-65
2021/07/19 01:43:57;;;;;;;10.93;1.88;;;39.60;30.40;;;;;;5064862;28;20614;-65
2021/07/19 01:46:26;;;;;;;10.25;2.17;;;39.60;30.20;;;;;;5062278;28;20077;-65
2021/07/19 01:48:53;;;;;;;10.77;2.60;;;39.50;30.50;;;;;;5063578;28;20086;-67
2021/07/19 01:51:20;;;;;;;15.40;2.70;;;39.40;31.30;;;;;;5058778;28;20117;-66
2021/07/19 01:53:48;;;;;;;9.77;2.10;;;39.20;31.20;;;;;;5059336;28;20172;-66
2021/07/19 01:56:15;;;;;;;7.10;2.17;;;39.20;31.50;;;;;;5064099;28;20073;-65
2021/07/19 01:58:43;;;;;;;12.10;2.38;;;39.30;31.10;;;;;;5062747;28;20073;-66
2021/07/19 02:01:11;;;;;;;9.52;2.25;;;39.80;30.90;;;;;;5061826;28;20081;-66
2021/07/19 02:03:37;;;;;;;13.00;2.03;;;39.90;30.00;;;;;;5059547;28;20109;-67
2021/07/19 02:06:10;;;;;;;8.30;1.88;;;39.60;30.60;;;;;;5069913;28;20127;-66
2021/07/19 02:08:38;;;;;;;8.65;2.03;;;39.40;31.00;;;;;;5065446;28;20164;-66
2021/07/19 02:11:07;;;;;;;6.88;1.80;;;39.10;31.60;;;;;;5070856;28;20065;-66
2021/07/19 02:13:41;;;;;;;6.07;1.50;;;38.90;31.80;;;;;;5070741;28;20629;-66
2021/07/19 02:16:08;;;;;;;8.98;2.25;;;38.60;32.00;;;;;;5067172;28;20073;-66
2021/07/19 02:18:39;;;;;;;7.13;2.08;;;38.40;32.30;;;;;;5066711;28;20083;-66
2021/07/19 02:21:07;;;;;;;9.70;2.17;;;38.40;32.40;;;;;;5068554;28;20065;-66
2021/07/19 02:23:36;;;;;;;13.38;2.90;;;38.40;32.40;;;;;;5067793;28;20080;-66
2021/07/19 02:26:05;;;;;;;14.38;2.10;;;38.20;32.50;;;;;;5065560;28;20080;-66
2021/07/19 02:28:35;;;;;;;15.25;2.45;;;38.20;32.70;;;;;;5065401;28;20152;-66
2021/07/19 02:31:04;;;;;;;13.13;2.50;;;38.10;32.80;;;;;;5064884;28;20088;-65
2021/07/19 02:33:36;;;;;;;12.55;2.45;;;38.10;32.90;;;;;;5067548;28;20105;-66
2021/07/19 02:36:07;;;;;;;8.38;2.42;;;38.00;32.80;;;;;;5071516;28;20419;-66
2021/07/19 02:38:34;;;;;;;15.77;2.67;;;37.90;33.00;;;;;;5066188;28;20105;-66
2021/07/19 02:41:02;;;;;;;11.13;2.28;;;37.90;33.20;;;;;;5066828;28;20132;-66
2021/07/19 02:43:32;;;;;;;14.65;2.20;;;37.90;33.50;;;;;;5067260;28;20500;-66
2021/07/19 02:46:00;;;;;;;13.13;2.40;;;37.80;33.70;;;;;;5064058;28;20092;-66
2021/07/19 02:48:36;;;;;;;6.80;2.03;;;37.70;33.80;;;;;;5043344;28;20078;-65
2021/07/19 02:51:05;;;;;;;17.73;2.72;;;37.70;34.00;;;;;;5067143;28;20105;-66
2021/07/19 02:53:34;;;;;;;15.60;2.47;;;37.60;38.50;;;;;;5063881;28;20128;-66
2021/07/19 02:56:01;;;;;;;14.00;2.08;;;;;;;;;;5066323;28;20101;-65
2021/07/19 02:58:28;;;;;;;14.23;2.30;;;37.40;33.90;;;;;;5060578;28;20035;-65
2021/07/19 03:00:55;;;;;;;12.82;2.28;;;37.50;34.50;;;;;;5068620;28;20553;-66
2021/07/19 03:03:34;;;;;;;13.55;2.63;;;37.40;34.80;;;;;;5065040;28;20073;-66
2021/07/19 03:06:05;;;;;;;12.68;2.42;;;37.30;35.10;;;;;;5066616;28;20073;-66
2021/07/19 03:08:35;;;;;;;17.10;2.75;;;37.20;35.30;;;;;;5066873;28;20081;-64
2021/07/19 03:11:11;;;;;;;17.48;2.42;;;37.20;35.40;;;;;;5065855;28;20193;-65
2021/07/19 03:13:39;;;;;;;10.88;2.25;;;37.10;35.70;;;;;;5066928;28;20104;-64
2021/07/19 03:16:06;;;;;;;19.08;3.45;;;37.10;35.90;;;;;;5045539;28;20102;-65
2021/07/19 03:18:37;;;;;;;14.80;2.97;;;37.00;36.50;;;;;;5045972;28;20073;-65
2021/07/19 03:21:06;;;;;;;15.45;2.70;;;37.70;47.70;;;;;;5064561;28;20164;-66
2021/07/19 03:23:36;;;;;;;14.02;2.75;;;36.60;49.60;;;;;;5063878;28;20130;-65
2021/07/19 03:26:03;;;;;;;8.68;2.45;;;36.80;38.30;;;;;;5065830;28;20119;-65
2021/07/19 03:28:30;;;;;;;17.20;2.60;;;36.80;38.60;;;;;;5063527;28;20155;-66
2021/07/19 03:30:57;;;;;;;13.27;3.30;;;36.70;38.90;;;;;;5065502;28;20426;-66
2021/07/19 03:33:24;;;;;;;16.23;3.22;;;37.00;41.70;;;;;;5065871;28;20154;-66
2021/07/19 03:35:54;;;;;;;18.33;2.80;;;36.50;39.30;;;;;;5066329;28;20163;-66
2021/07/19 03:38:21;;;;;;;14.70;2.85;;;36.60;51.30;;;;;;5062518;28;20077;-67
2021/07/19 03:40:47;;;;;;;14.27;2.95;;;36.30;54.40;;;;;;5065773;28;20146;-66
2021/07/19 03:43:14;;;;;;;15.70;2.70;;;36.30;40.10;;;;;;5063119;28;20160;-66
2021/07/19 03:45:46;;;;;;;9.32;2.47;;;36.30;40.60;;;;;;5048020;28;20077;-66
2021/07/19 03:48:12;;;;;;;13.60;2.85;;;36.10;44.00;;;;;;5065473;28;20120;-65
2021/07/19 03:50:39;;;;;;;14.18;2.78;;;36.20;41.40;;;;;;5064533;28;20165;-66
2021/07/19 03:53:08;;;;;;;13.18;2.88;;;36.10;41.60;;;;;;5068637;28;20179;-67
2021/07/19 03:55:34;;;;;;;15.40;3.25;;;36.00;41.90;;;;;;5047785;28;20172;-67
2021/07/19 03:58:01;;;;;;;15.02;3.42;;;36.00;42.10;;;;;;5062057;28;20168;-67
2021/07/19 04:00:30;;;;;;;12.90;3.28;;;36.00;42.30;;;;;;5064221;28;20527;-66
2021/07/19 04:02:57;;;;;;;25.02;4.60;;;36.00;45.60;;;;;;5064503;28;20479;-66
2021/07/19 04:05:26;;;;;;;25.02;4.43;;;36.00;42.90;;;;;;5067299;28;20061;-66
2021/07/19 04:07:54;;;;;;;19.58;4.38;;;35.80;42.90;;;;;;5060764;28;20489;-66
2021/07/19 04:10:21;;;;;;;23.77;4.88;;;35.90;43.40;;;;;;5061440;28;20072;-67
2021/07/19 04:12:50;;;;;;;21.00;4.40;;;35.70;55.00;;;;;;5065274;28;20097;-67
2021/07/19 04:15:17;;;;;;;27.30;5.20;;;35.70;49.60;;;;;;5065154;28;20519;-67
2021/07/19 04:17:47;;;;;;;22.65;5.43;;;35.60;54.90;;;;;;5069412;28;20077;-66
2021/07/19 04:20:15;;;;;;;26.02;5.40;;;35.60;45.00;;;;;;5064930;28;20085;-66
2021/07/19 04:22:43;;;;;;;23.48;5.30;;;35.50;45.20;;;;;;5062559;28;20077;-65
2021/07/19 04:25:12;;;;;;;32.28;5.00;;;35.40;45.70;;;;;;5067427;28;20099;-66
2021/07/19 04:27:41;;;;;;;27.52;4.70;;;35.40;46.00;;;;;;5062881;28;20081;-66
2021/07/19 04:30:09;;;;;;;18.30;4.47;;;35.40;46.10;;;;;;5065112;28;20690;-66
2021/07/19 04:32:37;;;;;;;24.35;4.15;;;35.10;61.10;;;;;;5064160;28;20097;-65
2021/07/19 04:35:17;;;;;;;14.05;3.33;;;35.10;70.00;;;;;;5062375;28;20374;-66
2021/07/19 04:37:44;;;;;;;15.82;3.30;;;35.10;46.80;;;;;;5047601;28;20080;-65
2021/07/19 04:40:11;;;;;;;15.48;3.55;;;35.00;47.30;;;;;;5060096;28;20072;-65
2021/07/19 04:42:39;;;;;;;13.18;2.70;;;35.10;47.70;;;;;;5062159;28;20077;-65
2021/07/19 04:45:06;;;;;;;17.75;3.20;;;35.00;54.70;;;;;;5063194;28;20071;-67
2021/07/19 04:47:33;;;;;;;19.20;3.45;;;34.50;65.30;;;;;;5067389;28;20045;-64
2021/07/19 04:50:00;;;;;;;18.35;3.05;;;35.20;60.30;;;;;;5067440;28;20109;-66
2021/07/19 04:52:26;;;;;;;18.02;3.35;;;34.80;49.80;;;;;;5061841;28;20102;-66
2021/07/19 04:54:55;;;;;;;18.20;3.20;;;34.60;68.10;;;;;;5047027;28;20092;-65
2021/07/19 04:57:24;;;;;;;20.55;3.65;;;34.70;50.30;;;;;;5065113;28;20038;-66
2021/07/19 04:59:53;;;;;;;16.75;3.70;;;34.70;50.80;;;;;;5062750;28;20069;-66
2021/07/19 05:02:26;;;;;;;16.63;4.43;;;34.70;51.10;;;;;;5067445;28;20120;-65
2021/07/19 05:04:54;;;;;;;18.65;4.80;;;34.70;51.20;;;;;;5045960;28;20085;-65
2021/07/19 05:07:24;;;;;;;16.55;4.75;;;34.60;51.50;;;;;;5067532;28;20093;-66
2021/07/19 05:09:51;;;;;;;18.50;5.40;;;34.50;51.50;;;;;;5062273;28;20732;-65
2021/07/19 05:12:22;;;;;;;22.05;5.13;;;34.50;51.70;;;;;;5064681;28;20131;-65
2021/07/19 05:14:49;;;;;;;21.52;4.75;;;34.50;52.30;;;;;;5065272;28;20081;-66
2021/07/19 05:17:16;;;;;;;20.42;4.80;;;34.40;52.40;;;;;;5062581;28;20693;-66
2021/07/19 05:19:46;;;;;;;18.10;3.92;;;34.40;52.70;;;;;;5065679;28;20073;-66
2021/07/19 05:22:15;;;;;;;15.13;3.80;;;34.40;52.80;;;;;;5063367;28;20165;-66
2021/07/19 05:24:42;;;;;;;25.95;3.95;;;34.40;52.90;;;;;;5063017;28;20080;-66
2021/07/19 05:27:11;;;;;;;19.73;4.45;;;34.30;65.70;;;;;;5045679;28;20080;-65
2021/07/19 05:29:39;;;;;;;16.27;4.07;;;34.10;77.50;;;;;;5064604;28;20081;-65
2021/07/19 05:32:08;;;;;;;20.00;4.00;;;34.20;57.40;;;;;;5044898;28;20212;-65
2021/07/19 05:34:35;;;;;;;16.73;3.67;;;33.90;65.30;;;;;;5060833;28;20040;-65
2021/07/19 05:37:03;;;;;;;16.35;4.18;;;34.10;53.10;;;;;;5061028;28;20036;-65
2021/07/19 05:39:29;;;;;;;10.55;3.47;;;34.10;62.20;;;;;;5061732;28;20078;-65
2021/07/19 05:41:56;;;;;;;14.40;4.10;;;34.00;53.60;;;;;;5063906;28;20219;-65
2021/07/19 05:44:22;;;;;;;15.15;3.45;;;34.00;53.70;;;;;;5067671;28;20446;-66
2021/07/19 05:46:49;;;;;;;14.25;3.50;;;34.00;54.00;;;;;;5065294;28;20113;-65
2021/07/19 05:49:17;;;;;;;20.95;3.60;;;33.90;54.20;;;;;;5070778;28;20076;-67
2021/07/19 05:51:43;;;;;;;27.98;4.20;;;33.90;54.40;;;;;;5047890;28;20081;-66
2021/07/19 05:54:10;;;;;;;12.38;3.53;;;33.90;54.60;;;;;;5067692;28;20211;-66
2021/07/19 05:56:38;;;;;;;15.32;3.42;;;33.90;54.70;;;;;;5063061;28;21381;-65
2021/07/19 05:59:04;;;;;;;14.38;3.92;;;33.90;54.90;;;;;;5071828;28;20073;-65
2021/07/19 06:01:31;;;;;;;17.30;3.50;;;33.90;55.10;;;;;;5068077;28;20077;-65
2021/07/19 06:03:59;;;;;;;17.17;3.28;;;33.80;55.40;;;;;;5066353;28;20077;-66
2021/07/19 06:06:27;;;;;;;17.35;3.78;;;33.70;55.70;;;;;;5066240;28;20593;-65
2021/07/19 06:08:53;;;;;;;16.20;3.53;;;33.60;55.80;;;;;;5066558;28;20081;-64
2021/07/19 06:11:20;;;;;;;12.88;3.30;;;33.60;55.80;;;;;;5066452;28;20072;-65
2021/07/19 06:13:46;;;;;;;17.48;3.55;;;33.70;56.00;;;;;;5066043;28;20155;-65
2021/07/19 06:16:13;;;;;;;19.92;3.50;;;33.60;55.80;;;;;;5065144;28;20077;-65
2021/07/19 06:18:39;;;;;;;16.85;3.35;;;33.60;56.40;;;;;;5067733;28;20085;-64
2021/07/19 06:21:06;;;;;;;17.42;2.97;;;33.60;56.10;;;;;;5066084;28;20575;-65
2021/07/19 06:23:32;;;;;;;12.05;3.35;;;33.60;56.20;;;;;;5064061;28;20572;-64
2021/07/19 06:25:59;;;;;;;19.40;4.57;;;33.40;64.90;;;;;;5069813;28;20441;-65
2021/07/19 06:28:25;;;;;;;14.38;3.45;;;33.40;56.70;;;;;;5064987;28;20077;-65
2021/07/19 06:30:53;;;;;;;21.35;4.43;;;33.30;57.00;;;;;;5067488;28;20079;-66
2021/07/19 06:33:20;;;;;;;17.75;4.50;;;33.40;57.10;;;;;;5061956;28;20093;-66
2021/07/19 06:35:47;;;;;;;19.25;5.70;;;33.30;57.30;;;;;;5069009;28;20070;-65
2021/07/19 06:38:13;;;;;;;18.27;4.90;;;33.30;57.10;;;;;;5070035;28;20077;-65
2021/07/19 06:40:40;;;;;;;21.70;5.78;;;33.00;61.00;;;;;;5061732;28;20124;-65
2021/07/19 06:43:06;;;;;;;24.83;5.53;;;33.30;57.80;;;;;;5064269;28;20068;-65
2021/07/19 06:45:33;;;;;;;24.67;5.93;;;33.50;57.70;;;;;;5063140;28;20162;-65
2021/07/19 06:47:59;;;;;;;27.08;6.35;;;33.20;57.50;;;;;;5064285;28;20085;-64
2021/07/19 06:50:26;;;;;;;20.10;6.05;;;33.20;58.00;;;;;;5065625;28;20200;-64
2021/07/19 06:52:53;;;;;;;20.13;5.80;;;33.20;58.10;;;;;;5064027;28;20097;-64
2021/07/19 06:55:19;;;;;;;19.58;5.82;;;33.20;58.20;;;;;;5066822;28;20073;-65
2021/07/19 06:57:46;;;;;;;22.17;6.07;;;33.10;58.40;;;;;;5066852;28;20073;-65
2021/07/19 07:00:13;;;;;;;23.50;5.88;;;33.20;58.40;;;;;;5062338;28;20078;-65
2021/07/19 07:02:39;;;;;;;24.05;5.30;;;33.10;58.40;;;;;;5066715;28;20080;-65
2021/07/19 07:05:06;;;;;;;20.80;5.07;;;33.10;86.90;;;;;;5065437;28;20434;-64
2021/07/19 07:07:33;;;;;;;26.98;7.68;;;33.10;76.80;;;;;;5067411;28;20045;-64
2021/07/19 07:09:59;;;;;;;28.17;8.45;;;33.40;75.20;;;;;;5065540;28;20510;-64
2021/07/19 07:12:26;;;;;;;19.80;7.47;;;33.10;58.70;;;;;;5067630;28;20123;-64
2021/07/19 07:14:52;;;;;;;24.10;7.32;;;33.00;58.90;;;;;;5065339;28;20496;-65
2021/07/19 07:17:19;;;;;;;22.35;6.68;;;32.90;59.00;;;;;;5066025;28;20078;-64
2021/07/19 07:19:45;;;;;;;23.98;6.25;;;33.00;59.00;;;;;;5073160;28;20530;-64
2021/07/19 07:22:12;;;;;;;27.55;6.82;;;33.00;58.60;;;;;;5064646;28;20492;-64
2021/07/19 07:24:40;;;;;;;24.10;6.40;;;33.00;58.30;;;;;;5068125;28;20471;-64
2021/07/19 07:27:09;;;;;;;31.65;6.63;;;33.00;57.80;;;;;;5068768;28;20523;-64
2021/07/19 07:29:36;;;;;;;23.52;6.13;;;33.10;57.80;;;;;;5066131;28;20127;-64
2021/07/19 07:32:04;;;;;;;18.73;5.82;;;33.10;57.90;;;;;;5064156;28;20073;-65
2021/07/19 07:34:30;;;;;;;37.40;5.00;;;33.10;57.50;;;;;;5062747;28;20105;-64
2021/07/19 07:36:57;;;;;;;19.15;4.80;;;33.10;57.50;;;;;;5069168;28;20080;-65
2021/07/19 07:39:23;;;;;;;22.42;4.70;;;33.10;57.30;;;;;;5061569;28;20085;-66
2021/07/19 07:41:50;;;;;;;16.58;4.78;;;33.10;57.00;;;;;;5066143;28;20070;-65
2021/07/19 07:44:16;;;;;;;16.17;3.83;;;33.20;56.80;;;;;;5061442;28;20472;-64
2021/07/19 07:46:44;;;;;;;17.02;4.10;;;33.20;56.40;;;;;;5063847;28;20081;-64
2021/07/19 07:49:11;;;;;;;17.50;3.85;;;33.10;56.10;;;;;;5065543;28;20164;-65
2021/07/19 07:51:38;;;;;;;9.23;2.97;;;33.10;58.00;;;;;;5066307;28;20168;-64
2021/07/19 07:54:05;;;;;;;17.73;3.78;;;33.10;56.10;;;;;;5047742;28;20680;-64
2021/07/19 07:56:31;;;;;;;14.05;3.50;;;33.20;55.90;;;;;;5063597;28;20078;-64
2021/07/19 07:58:57;;;;;;;12.63;3.15;;;33.10;69.10;;;;;;5066452;28;20081;-65
2021/07/19 08:01:24;;;;;;;14.10;4.22;;;33.20;55.80;;;;;;5065398;28;20077;-64
2021/07/19 08:03:50;;;;;;;12.75;3.70;;;33.20;55.80;;;;;;5048351;28;20072;-64
2021/07/19 08:06:17;;;;;;;16.27;3.42;;;33.20;55.60;;;;;;5065859;28;20074;-65
2021/07/19 08:08:44;;;;;;;15.23;2.78;;;33.20;55.50;;;;;;5061459;28;20156;-65
2021/07/19 08:11:11;;;;;;;17.48;2.97;;;33.20;55.50;;;;;;5062546;28;20077;-65
2021/07/19 08:13:37;;;;;;;11.48;2.58;;;33.20;55.60;;;;;;5068030;28;20089;-65
2021/07/19 08:16:05;;;;;;;9.93;3.17;;;33.20;55.80;;;;;;5060774;28;20072;-65
2021/07/19 08:18:32;;;;;;;17.42;3.50;;;33.10;55.50;;;;;;5067386;28;20187;-65
2021/07/19 08:20:58;;;;;;;7.35;2.25;;;33.10;56.10;;;;;;5066225;28;20190;-65
2021/07/19 08:23:25;;;;;;;12.80;2.90;;;33.10;56.20;;;;;;5066789;28;20152;-65
2021/07/19 08:25:52;;;;;;;6.57;2.40;;;33.30;65.90;;;;;;5061412;28;20074;-65
2021/07/19 08:28:18;;;;;;;16.92;2.70;;;32.90;90.90;;;;;;5063874;28;20025;-65
2021/07/19 08:30:45;;;;;;;10.63;3.15;;;33.10;56.20;;;;;;5062909;28;20077;-64
2021/07/19 08:33:11;;;;;;;10.35;2.63;;;33.00;56.20;;;;;;5059180;28;20565;-64
2021/07/19 08:35:38;;;;;;;19.52;2.53;;;33.00;68.20;;;;;;5062504;28;20077;-64
2021/07/19 08:38:06;;;;;;;14.50;3.03;;;32.90;56.40;;;;;;5063994;28;20051;-64
2021/07/19 08:40:33;;;;;;;8.80;2.33;;;32.90;56.60;;;;;;5064392;28;20156;-64
2021/07/19 08:43:01;;;;;;;19.73;4.40;;;32.90;56.90;;;;;;5062674;28;20074;-66
2021/07/19 08:45:28;;;;;;;14.55;3.67;;;32.80;57.70;;;;;;5043182;28;20082;-64
2021/07/19 08:47:54;;;;;;;22.35;3.72;;;;;;;;;;5065915;28;20777;-66
2021/07/19 08:50:22;;;;;;;17.88;4.18;;;32.60;58.70;;;;;;5063190;28;20466;-64
2021/07/19 08:52:54;;;;;;;21.38;5.10;;;32.70;59.70;;;;;;5064740;28;20649;-64
2021/07/19 08:55:22;;;;;;;21.38;5.90;;;32.60;59.90;;;;;;5064878;28;21435;-65
2021/07/19 08:57:49;;;;;;;30.35;8.60;;;32.60;60.10;;;;;;5059899;28;20069;-65
2021/07/19 09:00:18;;;;;;;31.42;9.52;;;32.60;59.90;;;;;;5060933;28;20084;-65
2021/07/19 09:02:44;;;;;;;39.35;11.02;;;32.50;59.80;;;;;;5064775;28;20182;-65
2021/07/19 09:05:11;;;;;;;31.50;10.57;;;32.60;59.90;;;;;;5061218;28;20105;-65
2021/07/19 09:07:38;;;;;;;32.55;10.65;;;32.50;59.90;;;;;;5060804;28;20553;-65
2021/07/19 09:10:06;;;;;;;25.48;10.10;;;32.50;60.00;;;;;;5067248;28;20295;-65
2021/07/19 09:12:43;;;;;;;30.17;9.75;;;32.50;60.10;;;;;;5064336;28;20124;-65
2021/07/19 09:15:12;;;;;;;29.00;9.43;;;32.40;60.10;;;;;;5060677;28;20085;-65
2021/07/19 09:17:40;;;;;;;30.58;9.38;;;32.40;60.40;;;;;;5060092;28;20323;-65
2021/07/19 09:20:12;;;;;;;21.73;9.13;;;32.40;60.60;;;;;;5065493;28;20077;-65
2021/07/19 09:22:39;;;;;;;30.10;8.60;;;;;;;;;;5064931;28;20073;-65
2021/07/19 09:25:17;;;;;;;24.83;9.40;;;32.30;81.10;;;;;;5060714;28;20028;-65
2021/07/19 09:28:10;;;;;;;22.83;8.27;;;32.30;85.30;;;;;;5065106;28;20052;-65
2021/07/19 09:30:39;;;;;;;30.80;9.20;;;32.10;90.80;;;;;;5059237;28;20028;-63
2021/07/19 09:33:24;;;;;;;30.45;8.60;;;32.00;72.70;;;;;;5066253;28;20131;-64
2021/07/19 09:35:52;;;;;;;19.05;7.20;;;32.30;61.70;;;;;;5065971;28;20077;-63
2021/07/19 09:38:19;;;;;;;22.25;6.50;;;32.20;61.80;;;;;;5062148;28;20084;-64
2021/07/19 09:40:58;;;;;;;23.17;7.53;;;32.20;62.00;;;;;;5059306;28;20088;-64
2021/07/19 09:43:28;;;;;;;23.58;5.78;;;32.20;62.30;;;;;;5061014;28;20088;-64
2021/07/19 09:46:04;;;;;;;21.98;6.38;;;32.10;62.70;;;;;;5045174;28;20084;-64
2021/07/19 09:48:32;;;;;;;28.00;5.57;;;32.00;62.90;;;;;;5062562;28;20073;-65
2021/07/19 09:50:59;;;;;;;16.60;4.00;;;32.00;63.30;;;;;;5062854;28;20141;-65
2021/07/19 09:53:34;;;;;;;13.18;4.30;;;32.10;63.40;;;;;;5067093;28;20089;-65
2021/07/19 09:56:09;;;;;;;14.88;4.50;;;32.00;63.40;;;;;;5046412;28;20519;-64
2021/07/19 09:58:36;;;;;;;16.30;4.70;;;32.20;77.70;;;;;;5064631;28;20431;-65
2021/07/19 10:01:02;;;;;;;16.50;4.68;;;32.00;64.10;;;;;;5063050;28;20078;-64
2021/07/19 10:03:30;;;;;;;16.95;4.72;;;32.30;81.20;;;;;;5060240;28;20592;-63
2021/07/19 10:06:10;;;;;;;16.17;3.83;;;32.10;63.60;;;;;;5063964;28;20079;-63
2021/07/19 10:08:36;;;;;;;14.50;3.97;;;32.10;64.30;;;;;;5064165;28;20090;-64
2021/07/19 10:11:14;;;;;;;12.32;4.00;;;32.10;64.60;;;;;;5063620;28;20065;-63
2021/07/19 10:13:48;;;;;;;11.35;3.75;;;32.00;65.00;;;;;;5060785;28;20132;-64
2021/07/19 10:16:15;;;;;;;19.65;4.53;;;32.00;65.40;;;;;;5059166;28;20156;-63
2021/07/19 10:18:45;;;;;;;14.55;4.35;;;32.00;66.30;;;;;;5063937;28;20542;-64
2021/07/19 10:21:12;;;;;;;16.05;5.47;;;31.90;66.90;;;;;;5065935;28;20069;-64
2021/07/19 10:23:40;;;;;;;18.65;5.47;;;31.90;67.80;;;;;;5063387;28;20080;-65
2021/07/19 10:26:09;;;;;;;17.90;4.22;;;31.80;67.00;;;;;;5063822;28;20076;-64
2021/07/19 10:28:38;;;;;;;13.55;4.32;;;31.70;67.60;;;;;;5061868;28;20555;-64
2021/07/19 10:31:04;;;;;;;14.38;4.22;;;31.60;69.10;;;;;;5060334;28;20089;-64
2021/07/19 10:33:32;;;;;;;15.75;3.85;;;31.50;70.00;;;;;;5066748;28;20097;-64
2021/07/19 10:36:02;;;;;;;12.27;3.58;;;31.30;71.20;;;;;;5064504;28;20072;-64
2021/07/19 10:38:30;;;;;;;12.57;3.65;;;31.20;71.90;;;;;;5071730;28;20069;-64
2021/07/19 10:40:58;;;;;;;12.32;3.45;;;31.00;73.60;;;;;;5067690;28;20507;-64
2021/07/19 10:43:27;;;;;;;19.05;4.47;;;30.90;74.70;;;;;;5059881;28;20082;-64
2021/07/19 10:45:56;;;;;;;16.80;3.70;;;30.70;75.40;;;;;;5062770;28;20096;-64
2021/07/19 10:48:30;;;;;;;12.60;3.95;;;30.80;75.60;;;;;;5047744;28;20074;-64
2021/07/19 10:51:17;;;;;;;19.10;5.00;;;30.70;75.80;;;;;;5064397;28;20139;-64
2021/07/19 10:53:44;;;;;;;;;;;30.70;76.20;;;;;;5064881;28;20104;-64
2021/07/19 10:56:12;;;;;;;17.17;3.65;;;30.50;77.20;;;;;;5065409;28;19957;-64
2021/07/19 10:58:42;;;;;;;14.77;3.47;;;30.60;77.10;;;;;;5065320;28;20088;-64
2021/07/19 11:01:28;;;;;;;16.15;3.75;;;30.50;77.60;;;;;;5070994;28;20480;-64
2021/07/19 11:03:57;;;;;;;11.45;3.45;;;30.50;78.00;;;;;;5062238;28;20093;-64
2021/07/19 11:06:36;;;;;;;14.93;3.88;;;30.50;78.10;;;;;;5065324;28;20588;-64
2021/07/19 11:09:05;;;;;;;15.77;3.95;;;30.50;78.00;;;;;;5067125;28;20076;-64
2021/07/19 11:11:39;;;;;;;16.40;3.88;;;30.60;78.60;;;;;;5068108;28;20068;-64
2021/07/19 11:14:08;;;;;;;13.02;3.58;;;30.60;78.70;;;;;;5065398;28;20176;-64
2021/07/19 11:16:52;;;;;;;17.88;3.90;;;30.50;78.60;;;;;;5066057;28;20161;-64
2021/07/19 11:19:42;;;;;;;12.80;3.60;;;30.50;78.80;;;;;;5060912;28;20077;-64
2021/07/19 11:22:21;;;;;;;20.83;3.70;;;30.50;78.90;;;;;;5068376;28;20079;-65
2021/07/19 11:24:50;;;;;;;18.77;3.63;;;30.50;79.50;;;;;;5062970;28;20491;-66
2021/07/19 11:27:28;;;;;;;15.77;3.80;;;30.40;79.60;;;;;;5062765;28;20438;-65
2021/07/19 11:30:12;;;;;;;19.55;3.45;;;30.40;79.90;;;;;;5064591;28;20084;-65
2021/07/19 11:32:40;;;;;;;14.27;3.88;;;;;;;;;;5068279;28;20092;-65
2021/07/19 11:35:08;;;;;;;15.30;3.30;;;30.30;78.30;;;;;;5064176;28;20028;-64
2021/07/19 11:37:36;;;;;;;17.13;3.33;;;30.30;78.90;;;;;;5063815;28;20156;-64
2021/07/19 11:40:04;;;;;;;13.75;3.10;;;;;;;;;;5062719;28;20531;-65
2021/07/19 11:42:40;;;;;;;18.63;3.88;;;30.20;83.50;;;;;;5062625;28;20040;-64
2021/07/19 11:45:14;;;;;;;20.35;4.53;;;30.20;78.20;;;;;;5067536;28;20069;-64
2021/07/19 11:47:42;;;;;;;15.27;3.33;;;;;;;;;;5061140;28;20100;-64
2021/07/19 11:50:09;;;;;;;13.82;3.45;;;;;;;;;;5068850;28;20110;-65
2021/07/19 11:52:40;;;;;;;16.17;4.05;;;30.20;82.20;;;;;;5063811;28;20025;-64
2021/07/19 11:55:11;;;;;;;11.48;3.15;;;30.20;78.20;;;;;;5063818;28;20076;-64
2021/07/19 11:57:43;;;;;;;17.92;3.38;;;30.10;78.10;;;;;;5065484;28;20085;-64
2021/07/19 12:00:11;;;;;;;19.08;3.58;;;30.20;78.20;;;;;;5049054;28;20497;-64
2021/07/19 12:02:38;;;;;;;15.88;3.28;;;30.10;78.70;;;;;;5068771;28;20143;-64
2021/07/19 12:05:15;;;;;;;11.07;3.35;;;30.20;78.20;;;;;;5066046;28;20419;-63
2021/07/19 12:07:41;;;;;;;15.10;3.33;;;30.20;78.40;;;;;;5063309;28;20529;-63
2021/07/19 12:10:08;;;;;;;19.25;3.58;;;30.10;76.80;;;;;;5062808;28;20113;-63
2021/07/19 12:12:35;;;;;;;13.45;3.40;;;30.20;76.30;;;;;;5046002;28;20073;-64
2021/07/19 12:15:03;;;;;;;12.32;3.55;;;30.10;75.70;;;;;;5066735;28;20577;-64
2021/07/19 12:17:30;;;;;;;14.25;3.40;;;30.10;76.10;;;;;;5047218;28;20552;-64
2021/07/19 12:19:57;;;;;;;11.15;3.30;;;30.10;76.00;;;;;;5064838;28;20077;-64
2021/07/19 12:22:24;;;;;;;14.48;3.58;;;30.10;75.30;;;;;;5063976;28;20097;-63
2021/07/19 12:24:56;;;;;;;15.73;3.20;;;30.10;74.80;;;;;;5060929;28;20073;-63
2021/07/19 12:27:23;;;;;;;21.40;3.72;;;30.20;74.10;;;;;;5064784;28;20123;-64
2021/07/19 12:29:51;;;;;;;14.23;3.97;;;30.20;73.70;;;;;;5064576;28;20569;-64
2021/07/19 12:32:18;;;;;;;11.63;3.55;;;30.20;72.70;;;;;;5059322;28;20606;-64
2021/07/19 12:34:46;;;;;;;19.45;3.85;;;30.10;72.90;;;;;;5061399;28;20093;-64
2021/07/19 12:37:18;;;;;;;18.23;4.18;;;30.10;73.60;;;;;;5060140;28;20073;-64
2021/07/19 12:39:53;;;;;;;12.25;3.63;;;30.20;72.60;;;;;;5064869;28;20812;-65
2021/07/19 12:42:23;;;;;;;17.80;3.60;;;30.20;72.50;;;;;;5064601;28;20080;-64
2021/07/19 12:44:58;;;;;;;16.48;4.18;;;30.30;71.50;;;;;;5060653;28;20078;-64
2021/07/19 12:47:28;;;;;;;16.83;3.70;;;30.20;71.50;;;;;;5064325;28;20093;-64
2021/07/19 12:50:00;;;;;;;19.63;4.22;;;30.20;71.70;;;;;;5060800;28;20109;-64